Terminal Aerodrome Forecast
Issued by NWS Spokane, WA

Home | Current Version | Previous Version | Text Only | Print | Product List | Glossary On
Versions: 1 2 3 4 5 6 7 8 9 10 11 12 13
000
FTUS46 KOTX 290520
TAFEAT
TAF
KEAT 290520Z 2906/3006 30006KT P6SM BKN080
     FM290700 30003KT P6SM -RA BKN050 OVC080
     FM290900 VRB05KT P6SM -RA OVC035
     FM291400 15005KT P6SM SCT015 OVC060
     FM292000 VRB04KT P6SM SCT050 BKN080
     FM300200 30008KT P6SM FEW060 BKN200=

USA.gov is the U.S. government's official web portal to all federal, state and local government web resources and services.